首页
METAR-TAF:

METAR-TAF

机场 :

Emporia-Greensville Regional Airport

恩波里亞, 弗吉尼亚州, 美国

纬度: 36-41-13N, 经度: 077-28-58W, 海拔: 39米

当前天气观测

该预报发布于24分钟前的03:55 UTC
风速5节,风向西
温度 14°C
湿度 77%
气压 1015 hPa
能見度: 16.1公里
散云层高于6000英尺
多云层高于10000英尺

METAR: KEMV 170355Z AUTO 28005KT 10SM SCT060 BKN100 14/10 A2997 RMK AO2 T01350095

时间: 00:19 (04:19 UTC)


TAF: 丢失

超过4000个机场的气象观测和天气预报(METAR&TAF报告)。

可查询的气象台以黄色和红色小点在地图上表示。

将鼠标移到小点上方,可查看气象台名称。

然后点击查看天气观测和预报。

如需切换地图:点击带黑十字的绿色按钮放大地图;点击带横线的绿色按钮缩小地图;或者点击绿色箭头查看邻近地区的地图。


METAR-TAF: